createdAt,value
2018-05-07T00:02:03.372Z,11.34
2018-05-07T00:04:31.496Z,11.33
2018-05-07T00:06:59.668Z,11.32
2018-05-07T00:09:27.839Z,11.28
2018-05-07T00:11:55.928Z,11.26
2018-05-07T00:14:24.170Z,11.25
2018-05-07T00:16:52.286Z,11.23
2018-05-07T00:19:20.409Z,11.24
2018-05-07T00:21:48.591Z,11.22
2018-05-07T00:24:16.701Z,11.16
2018-05-07T00:26:44.820Z,11.07
2018-05-07T00:29:12.980Z,11.00
2018-05-07T00:31:41.114Z,10.93
2018-05-07T00:34:09.228Z,10.91
2018-05-07T00:36:37.515Z,10.89
2018-05-07T00:39:05.641Z,10.85
2018-05-07T00:41:33.773Z,10.84
2018-05-07T00:44:01.903Z,10.82
2018-05-07T00:46:30.010Z,10.79
2018-05-07T00:48:58.127Z,10.71
2018-05-07T00:51:26.282Z,10.68
2018-05-07T00:53:54.398Z,10.68
2018-05-07T00:56:22.530Z,10.68
2018-05-07T00:58:50.672Z,10.66
2018-05-07T01:01:18.784Z,10.65
2018-05-07T01:03:46.892Z,10.64
2018-05-07T01:06:15.049Z,10.64
2018-05-07T01:08:43.169Z,10.64
2018-05-07T01:11:11.293Z,10.63
2018-05-07T01:13:39.464Z,10.62
2018-05-07T01:16:07.576Z,10.60
2018-05-07T01:18:35.698Z,10.58
2018-05-07T01:21:03.933Z,10.55
2018-05-07T01:23:32.047Z,10.55
2018-05-07T01:26:00.185Z,10.53
2018-05-07T01:28:28.299Z,10.53
2018-05-07T01:30:56.417Z,10.53
2018-05-07T01:33:24.550Z,10.52
2018-05-07T01:35:52.719Z,10.50
2018-05-07T01:38:20.828Z,10.49
2018-05-07T01:40:48.951Z,10.49
2018-05-07T01:43:17.068Z,10.47
2018-05-07T01:45:45.199Z,10.32
2018-05-07T01:48:13.349Z,10.27
2018-05-07T01:50:41.441Z,10.23
2018-05-07T01:53:09.963Z,10.20
2018-05-07T01:55:38.088Z,10.21
2018-05-07T01:58:06.212Z,10.21
2018-05-07T02:00:34.328Z,10.23
2018-05-07T02:03:02.465Z,10.22
2018-05-07T02:05:30.589Z,10.23
2018-05-07T02:07:58.721Z,10.22
2018-05-07T02:10:26.833Z,10.19
2018-05-07T02:12:54.961Z,10.16
2018-05-07T02:15:23.079Z,10.15
2018-05-07T02:17:51.196Z,10.16
2018-05-07T02:20:19.339Z,10.16
2018-05-07T02:22:47.460Z,10.17
2018-05-07T02:25:15.578Z,10.18
2018-05-07T02:27:43.700Z,10.17
2018-05-07T02:30:11.809Z,10.15
2018-05-07T02:32:39.919Z,10.14
2018-05-07T02:35:08.062Z,10.10
2018-05-07T02:37:36.206Z,10.03
2018-05-07T02:40:04.311Z,10.03
2018-05-07T02:42:32.442Z,10.00
2018-05-07T02:45:00.552Z,9.95
2018-05-07T02:47:28.663Z,9.93
2018-05-07T02:49:56.791Z,9.91
2018-05-07T02:52:24.898Z,9.91
2018-05-07T02:54:53.029Z,9.92
2018-05-07T02:57:21.147Z,9.87
2018-05-07T02:59:49.254Z,9.84
2018-05-07T03:02:17.355Z,9.83
2018-05-07T03:04:45.483Z,9.80
2018-05-07T03:07:13.597Z,9.81
2018-05-07T03:09:41.719Z,9.79
2018-05-07T03:12:09.919Z,9.76
2018-05-07T03:14:37.978Z,9.71
2018-05-07T03:17:06.152Z,9.68
2018-05-07T03:19:34.258Z,9.60
2018-05-07T03:22:02.377Z,9.53
2018-05-07T03:24:30.491Z,9.51
2018-05-07T03:26:58.607Z,9.50
2018-05-07T03:29:26.713Z,9.48
2018-05-07T03:31:54.825Z,9.49
2018-05-07T03:34:22.955Z,9.50
2018-05-07T03:36:51.056Z,9.51
2018-05-07T03:39:19.166Z,9.51
2018-05-07T03:41:47.282Z,9.51
2018-05-07T03:44:15.407Z,9.48
2018-05-07T03:46:43.537Z,9.42
2018-05-07T03:49:11.661Z,9.40
2018-05-07T03:51:39.775Z,9.38
2018-05-07T03:54:07.896Z,9.39
2018-05-07T03:56:36.011Z,9.40
2018-05-07T03:59:04.124Z,9.42
2018-05-07T04:01:32.242Z,9.45
2018-05-07T04:04:00.359Z,9.48
2018-05-07T04:06:28.467Z,9.52
2018-05-07T04:08:56.583Z,9.55
2018-05-07T04:11:24.715Z,9.59
2018-05-07T04:13:53.714Z,9.63
2018-05-07T04:16:33.868Z,9.68
2018-05-07T04:19:13.807Z,9.75
2018-05-07T04:21:41.939Z,9.79
2018-05-07T04:24:10.069Z,9.88
2018-05-07T04:26:38.192Z,9.99
2018-05-07T04:29:06.453Z,10.13
2018-05-07T04:31:34.571Z,10.23
2018-05-07T04:34:02.705Z,10.32
2018-05-07T04:36:30.851Z,10.37
2018-05-07T04:38:58.979Z,10.39
2018-05-07T04:41:27.098Z,10.42
2018-05-07T04:43:55.265Z,10.45
2018-05-07T04:46:23.387Z,10.50
2018-05-07T04:48:51.587Z,10.56
2018-05-07T04:51:19.680Z,10.60
2018-05-07T04:53:47.840Z,10.63
2018-05-07T04:56:15.946Z,10.68
2018-05-07T04:58:44.234Z,10.75
2018-05-07T05:01:12.349Z,10.83
2018-05-07T05:03:40.485Z,10.90
2018-05-07T05:06:08.613Z,10.97
2018-05-07T05:08:36.742Z,11.10
2018-05-07T05:11:04.872Z,11.25
2018-05-07T05:13:33.023Z,11.32
2018-05-07T05:16:01.135Z,11.39
2018-05-07T05:18:29.247Z,11.48
2018-05-07T05:20:57.426Z,11.57
2018-05-07T05:23:25.541Z,11.62
2018-05-07T05:25:53.660Z,11.65
2018-05-07T05:28:21.795Z,11.70
2018-05-07T05:30:50.139Z,11.80
2018-05-07T05:33:18.292Z,11.89
2018-05-07T05:35:46.417Z,12.01
2018-05-07T05:38:14.544Z,12.13
2018-05-07T05:40:42.674Z,12.24
2018-05-07T05:43:10.802Z,12.42
2018-05-07T05:45:38.911Z,12.52
2018-05-07T05:48:07.035Z,12.65
2018-05-07T05:50:35.172Z,12.72
2018-05-07T05:53:03.292Z,12.78
2018-05-07T05:55:31.428Z,12.88
2018-05-07T05:57:59.570Z,13.07
2018-05-07T06:00:27.707Z,13.20
2018-05-07T06:02:55.810Z,13.38
2018-05-07T06:05:23.939Z,13.55
2018-05-07T06:07:52.057Z,13.63
2018-05-07T06:10:20.185Z,13.68
2018-05-07T06:12:49.025Z,13.79
2018-05-07T06:15:17.129Z,13.93
2018-05-07T06:17:45.244Z,14.06
2018-05-07T06:20:13.362Z,14.21
2018-05-07T06:22:41.480Z,14.40
2018-05-07T06:25:09.757Z,14.56
2018-05-07T06:27:37.896Z,14.76
2018-05-07T06:30:06.023Z,14.89
2018-05-07T06:32:34.128Z,14.96
2018-05-07T06:35:02.258Z,15.02
2018-05-07T06:37:30.369Z,15.13
2018-05-07T06:39:58.489Z,15.20
2018-05-07T06:42:26.674Z,15.30
2018-05-07T06:44:54.787Z,15.53
2018-05-07T06:47:22.931Z,15.50
2018-05-07T06:49:51.066Z,15.40
2018-05-07T06:52:19.187Z,15.44
2018-05-07T06:54:47.288Z,15.49
2018-05-07T06:57:15.577Z,15.65
2018-05-07T06:59:43.693Z,15.77
2018-05-07T07:02:11.827Z,15.77
2018-05-07T07:04:39.930Z,15.97
2018-05-07T07:07:08.062Z,16.08
2018-05-07T07:09:36.229Z,16.05
2018-05-07T07:12:04.374Z,15.83
2018-05-07T07:14:32.487Z,16.05
2018-05-07T07:17:00.591Z,16.04
2018-05-07T07:19:28.717Z,16.26
2018-05-07T07:21:56.867Z,16.40
2018-05-07T07:24:24.995Z,16.44
2018-05-07T07:26:53.118Z,16.59
2018-05-07T07:29:21.244Z,16.52
2018-05-07T07:31:49.446Z,16.45
2018-05-07T07:34:17.630Z,16.54
2018-05-07T07:36:45.735Z,16.71
2018-05-07T07:39:13.858Z,16.86
2018-05-07T07:41:41.979Z,16.96
2018-05-07T07:44:10.096Z,17.11
2018-05-07T07:46:38.205Z,17.19
2018-05-07T07:49:06.447Z,17.26
2018-05-07T07:51:34.561Z,17.37
2018-05-07T07:54:02.682Z,17.54
2018-05-07T07:56:30.812Z,17.70
2018-05-07T07:58:58.936Z,17.84
2018-05-07T08:01:27.047Z,17.93
2018-05-07T08:03:55.181Z,17.60
2018-05-07T08:06:23.295Z,17.59
2018-05-07T08:08:51.394Z,17.92
2018-05-07T08:11:19.531Z,18.07
2018-05-07T08:13:47.642Z,18.23
2018-05-07T08:16:15.753Z,18.30
2018-05-07T08:18:43.882Z,18.45
2018-05-07T08:21:12.021Z,18.40
2018-05-07T08:23:40.123Z,18.49
2018-05-07T08:26:08.275Z,18.60
2018-05-07T08:28:36.392Z,18.67
2018-05-07T08:31:04.510Z,18.78
2018-05-07T08:33:32.666Z,18.86
2018-05-07T08:36:00.774Z,18.92
2018-05-07T08:38:28.888Z,18.86
2018-05-07T08:40:57.011Z,18.82
2018-05-07T08:43:25.133Z,18.82
2018-05-07T08:45:53.243Z,18.96
2018-05-07T08:48:21.369Z,19.07
2018-05-07T08:50:49.515Z,19.09
2018-05-07T08:53:17.622Z,19.19
2018-05-07T08:55:45.758Z,19.25
2018-05-07T08:58:13.876Z,19.29
2018-05-07T09:00:42.004Z,19.57
2018-05-07T09:03:22.600Z,19.57
2018-05-07T09:05:56.645Z,19.68
2018-05-07T09:08:37.498Z,19.96
2018-05-07T09:11:05.614Z,19.94
2018-05-07T09:13:33.816Z,20.17
2018-05-07T09:16:01.894Z,20.38
2018-05-07T09:18:30.015Z,20.25
2018-05-07T09:20:58.138Z,20.39
2018-05-07T09:23:26.277Z,20.26
2018-05-07T09:25:54.386Z,20.53
2018-05-07T09:28:22.493Z,20.29
2018-05-07T09:30:50.614Z,20.43
2018-05-07T09:33:18.738Z,20.61
2018-05-07T09:35:48.063Z,20.95
2018-05-07T09:38:16.252Z,21.21
2018-05-07T09:40:44.352Z,21.10
2018-05-07T09:43:12.487Z,21.30
2018-05-07T09:45:40.611Z,21.16
2018-05-07T09:48:08.732Z,21.32
2018-05-07T09:50:36.841Z,21.33
2018-05-07T09:53:04.965Z,21.54
2018-05-07T09:55:33.093Z,21.60
2018-05-07T09:58:04.094Z,21.95
2018-05-07T10:00:37.689Z,21.62
2018-05-07T10:03:05.863Z,21.88
2018-05-07T10:05:38.479Z,22.04
2018-05-07T10:08:06.595Z,22.34
2018-05-07T10:10:34.715Z,22.16
2018-05-07T10:13:02.831Z,22.30
2018-05-07T10:15:31.035Z,22.38
2018-05-07T10:17:59.139Z,21.91
2018-05-07T10:20:27.258Z,21.92
2018-05-07T10:22:55.381Z,22.23
2018-05-07T10:25:23.516Z,21.94
2018-05-07T10:27:51.654Z,22.15
2018-05-07T10:30:19.810Z,22.62
2018-05-07T10:32:47.960Z,22.37
2018-05-07T10:35:16.146Z,22.33
2018-05-07T10:37:44.242Z,22.52
2018-05-07T10:40:12.347Z,22.38
2018-05-07T10:42:40.514Z,22.49
2018-05-07T10:45:08.657Z,22.90
2018-05-07T10:47:36.783Z,22.95
2018-05-07T10:50:04.894Z,22.92
2018-05-07T10:52:33.026Z,23.15
2018-05-07T10:55:01.146Z,23.15
2018-05-07T10:57:29.282Z,23.24
2018-05-07T10:59:57.390Z,23.21
2018-05-07T11:02:25.499Z,23.33
2018-05-07T11:04:53.647Z,22.92
2018-05-07T11:07:21.865Z,23.32
2018-05-07T11:09:49.971Z,23.43
2018-05-07T11:12:18.103Z,23.44
2018-05-07T11:14:46.217Z,23.40
2018-05-07T11:17:14.396Z,23.42
2018-05-07T11:19:42.560Z,23.54
2018-05-07T11:22:10.676Z,23.64
2018-05-07T11:24:38.807Z,23.84
2018-05-07T11:27:06.986Z,23.96
2018-05-07T11:29:35.153Z,23.99
2018-05-07T11:32:03.284Z,23.91
2018-05-07T11:34:31.422Z,24.27
2018-05-07T11:36:59.548Z,24.38
2018-05-07T11:39:27.668Z,24.46
2018-05-07T11:41:55.776Z,24.38
2018-05-07T11:44:23.894Z,24.25
2018-05-07T11:46:52.026Z,24.49
2018-05-07T11:49:20.127Z,24.33
2018-05-07T11:51:48.256Z,24.13
2018-05-07T11:54:16.363Z,24.27
2018-05-07T11:56:44.461Z,24.56
2018-05-07T11:59:12.584Z,24.65
2018-05-07T12:01:40.718Z,24.57
2018-05-07T12:04:08.848Z,24.32
2018-05-07T12:06:36.994Z,24.46
2018-05-07T12:09:05.205Z,24.37
2018-05-07T12:11:33.312Z,24.50
2018-05-07T12:14:01.453Z,24.29
2018-05-07T12:16:29.571Z,24.42
2018-05-07T12:18:57.723Z,24.51
2018-05-07T12:21:25.857Z,24.78
2018-05-07T12:23:53.985Z,24.56
2018-05-07T12:26:22.106Z,24.74
2018-05-07T12:28:50.314Z,24.81
2018-05-07T12:31:18.428Z,24.72
2018-05-07T12:33:46.499Z,24.59
2018-05-07T12:36:14.623Z,24.33
2018-05-07T12:38:42.745Z,24.58
2018-05-07T12:41:10.892Z,24.72
2018-05-07T12:43:39.042Z,24.75
2018-05-07T12:46:07.159Z,24.28
2018-05-07T12:48:35.271Z,24.02
2018-05-07T12:51:03.385Z,24.01
2018-05-07T12:53:31.583Z,24.25
2018-05-07T12:55:59.685Z,24.12
2018-05-07T12:58:27.807Z,24.21
2018-05-07T13:00:56.796Z,24.36
2018-05-07T13:03:24.902Z,24.61
2018-05-07T13:05:53.091Z,24.32
2018-05-07T13:08:21.188Z,24.26
2018-05-07T13:10:49.311Z,24.21
2018-05-07T13:13:17.436Z,24.35
2018-05-07T13:15:45.585Z,24.41
2018-05-07T13:18:14.355Z,24.42
2018-05-07T13:20:42.477Z,24.55
2018-05-07T13:23:10.595Z,24.60
2018-05-07T13:25:38.710Z,24.69
2018-05-07T13:28:06.851Z,24.53
2018-05-07T13:30:34.958Z,24.53
2018-05-07T13:33:03.063Z,24.75
2018-05-07T13:35:31.194Z,24.80
2018-05-07T13:37:59.305Z,24.83
2018-05-07T13:40:27.412Z,24.78
2018-05-07T13:42:55.565Z,24.81
2018-05-07T13:45:23.669Z,24.75
2018-05-07T13:47:51.780Z,24.68
2018-05-07T13:50:19.957Z,24.66
2018-05-07T13:52:48.066Z,24.55
2018-05-07T13:55:16.198Z,24.65
2018-05-07T13:57:44.314Z,24.81
2018-05-07T14:00:12.447Z,24.85
2018-05-07T14:02:40.565Z,24.90
2018-05-07T14:05:08.714Z,24.95
2018-05-07T14:07:36.824Z,25.06
2018-05-07T14:10:04.951Z,24.96
2018-05-07T14:12:33.097Z,24.86
2018-05-07T14:15:01.212Z,24.89
2018-05-07T14:17:29.332Z,24.85
2018-05-07T14:19:57.446Z,24.64
2018-05-07T14:22:25.573Z,24.67
2018-05-07T14:24:53.705Z,24.58
2018-05-07T14:27:21.829Z,24.63
2018-05-07T14:29:49.935Z,24.79
2018-05-07T14:32:18.051Z,24.69
2018-05-07T14:34:46.181Z,24.78
2018-05-07T14:37:14.318Z,24.71
2018-05-07T14:39:42.422Z,24.71
2018-05-07T14:42:10.566Z,24.68
2018-05-07T14:44:38.678Z,24.70
2018-05-07T14:47:06.841Z,24.75
2018-05-07T14:49:34.955Z,24.71
2018-05-07T14:52:03.069Z,24.73
2018-05-07T14:54:31.229Z,24.62
2018-05-07T14:56:59.338Z,24.57
2018-05-07T14:59:27.448Z,24.56
2018-05-07T15:01:55.566Z,24.57
2018-05-07T15:04:23.850Z,24.60
2018-05-07T15:06:51.952Z,24.69
2018-05-07T15:09:20.107Z,24.75
2018-05-07T15:11:48.258Z,24.68
2018-05-07T15:14:22.249Z,24.65
2018-05-07T15:16:50.414Z,24.73
2018-05-07T15:19:18.548Z,24.66
2018-05-07T15:21:46.709Z,24.58
2018-05-07T15:24:14.814Z,24.56
2018-05-07T15:26:42.929Z,24.49
2018-05-07T15:29:11.127Z,24.45
2018-05-07T15:31:39.179Z,24.48
2018-05-07T15:34:07.578Z,24.59
2018-05-07T15:36:35.740Z,24.55
2018-05-07T15:39:03.856Z,24.53
2018-05-07T15:41:32.084Z,24.46
2018-05-07T15:44:00.280Z,24.52
2018-05-07T15:46:28.325Z,24.49
2018-05-07T15:48:56.478Z,24.42
2018-05-07T15:51:24.585Z,24.48
2018-05-07T15:53:52.744Z,24.36
2018-05-07T15:56:20.865Z,24.33
2018-05-07T15:58:48.968Z,24.33
2018-05-07T16:01:17.322Z,24.29
2018-05-07T16:03:45.451Z,24.26
2018-05-07T16:06:13.591Z,24.19
2018-05-07T16:08:41.751Z,24.25
2018-05-07T16:11:10.656Z,24.31
2018-05-07T16:13:38.795Z,24.11
2018-05-07T16:16:06.936Z,24.01
2018-05-07T16:18:35.061Z,24.04
2018-05-07T16:21:03.174Z,23.95
2018-05-07T16:23:31.619Z,23.90
2018-05-07T16:25:59.454Z,23.94
2018-05-07T16:28:27.561Z,23.89
2018-05-07T16:30:55.701Z,23.79
2018-05-07T16:33:23.808Z,23.80
2018-05-07T16:35:51.926Z,23.75
2018-05-07T16:38:20.055Z,23.63
2018-05-07T16:40:48.178Z,23.51
2018-05-07T16:43:16.293Z,23.55
2018-05-07T16:45:44.441Z,23.44
2018-05-07T16:48:12.552Z,23.33
2018-05-07T16:50:40.678Z,23.31
2018-05-07T16:53:08.809Z,23.24
2018-05-07T16:55:36.924Z,23.30
2018-05-07T16:58:05.037Z,23.29
2018-05-07T17:00:33.160Z,23.39
2018-05-07T17:03:01.272Z,23.39
2018-05-07T17:05:29.387Z,23.36
2018-05-07T17:07:57.526Z,23.23
2018-05-07T17:10:25.651Z,23.14
2018-05-07T17:12:53.768Z,23.05
2018-05-07T17:15:21.883Z,22.96
2018-05-07T17:17:49.998Z,22.81
2018-05-07T17:20:18.133Z,22.81
2018-05-07T17:22:46.268Z,22.69
2018-05-07T17:25:14.383Z,22.57
2018-05-07T17:27:42.485Z,22.43
2018-05-07T17:30:10.619Z,22.45
2018-05-07T17:32:38.734Z,22.28
2018-05-07T17:35:06.952Z,22.20
2018-05-07T17:37:35.072Z,22.00
2018-05-07T17:40:03.198Z,21.90
2018-05-07T17:42:31.321Z,21.76
2018-05-07T17:45:11.988Z,21.66
2018-05-07T17:47:51.820Z,21.56
2018-05-07T17:50:19.946Z,21.41
2018-05-07T17:52:48.071Z,21.24
2018-05-07T17:55:16.183Z,21.14
2018-05-07T17:57:44.305Z,21.01
2018-05-07T18:00:12.420Z,20.87
2018-05-07T18:02:40.526Z,20.79
2018-05-07T18:05:08.673Z,20.63
2018-05-07T18:07:36.798Z,20.44
2018-05-07T18:10:04.911Z,20.39
2018-05-07T18:12:33.032Z,20.29
2018-05-07T18:15:01.170Z,20.18
2018-05-07T18:17:29.275Z,20.11
2018-05-07T18:19:57.397Z,20.07
2018-05-07T18:22:25.524Z,20.00
2018-05-07T18:24:53.646Z,19.91
2018-05-07T18:27:21.794Z,19.83
2018-05-07T18:29:49.906Z,19.77
2018-05-07T18:32:18.019Z,19.82
2018-05-07T18:34:46.141Z,19.83
2018-05-07T18:37:14.277Z,19.75
2018-05-07T18:39:42.385Z,19.69
2018-05-07T18:42:10.513Z,19.64
2018-05-07T18:44:38.648Z,19.59
2018-05-07T18:47:06.809Z,19.62
2018-05-07T18:49:34.933Z,19.57
2018-05-07T18:52:03.109Z,19.47
2018-05-07T18:54:31.198Z,19.42
2018-05-07T18:56:59.345Z,19.42
2018-05-07T18:59:27.466Z,19.42
2018-05-07T19:01:55.563Z,19.46
2018-05-07T19:04:23.723Z,19.41
2018-05-07T19:06:51.834Z,19.46
2018-05-07T19:09:19.947Z,19.54
2018-05-07T19:11:48.355Z,19.49
2018-05-07T19:14:16.538Z,19.37
2018-05-07T19:16:44.620Z,19.43
2018-05-07T19:19:12.738Z,19.48
2018-05-07T19:21:40.873Z,19.54
2018-05-07T19:24:09.003Z,19.49
2018-05-07T19:26:37.120Z,19.63
2018-05-07T19:29:05.268Z,19.61
2018-05-07T19:31:33.379Z,19.61
2018-05-07T19:34:01.531Z,19.56
2018-05-07T19:36:29.666Z,19.46
2018-05-07T19:38:57.786Z,19.46
2018-05-07T19:41:25.912Z,19.46
2018-05-07T19:43:54.030Z,19.38
2018-05-07T19:46:22.159Z,19.30
2018-05-07T19:48:50.312Z,19.16
2018-05-07T19:51:18.429Z,19.02
2018-05-07T19:53:46.557Z,18.97
2018-05-07T19:56:14.705Z,18.91
2018-05-07T19:58:42.804Z,18.78
2018-05-07T20:01:10.898Z,18.67
2018-05-07T20:03:40.340Z,18.57
2018-05-07T20:06:08.451Z,18.48
2018-05-07T20:08:36.552Z,18.36
2018-05-07T20:11:04.691Z,18.29
2018-05-07T20:13:32.816Z,18.18
2018-05-07T20:16:00.931Z,18.10
2018-05-07T20:18:29.141Z,17.98
2018-05-07T20:20:57.266Z,17.89
2018-05-07T20:23:25.373Z,17.82
2018-05-07T20:25:53.501Z,17.72
2018-05-07T20:28:21.602Z,17.58
2018-05-07T20:30:49.712Z,17.45
2018-05-07T20:33:17.894Z,17.44
2018-05-07T20:35:45.999Z,17.35
2018-05-07T20:38:14.131Z,17.29
2018-05-07T20:40:42.259Z,17.23
2018-05-07T20:43:10.375Z,17.11
2018-05-07T20:45:38.532Z,17.07
2018-05-07T20:48:06.663Z,17.03
2018-05-07T20:50:34.781Z,16.99
2018-05-07T20:53:02.898Z,16.90
2018-05-07T20:55:31.135Z,16.82
2018-05-07T20:57:59.159Z,16.75
2018-05-07T21:00:27.267Z,16.69
2018-05-07T21:02:55.401Z,16.64
2018-05-07T21:05:23.511Z,16.54
2018-05-07T21:10:25.935Z,16.33
2018-05-07T21:12:54.046Z,16.25
2018-05-07T21:15:22.193Z,16.21
2018-05-07T21:17:50.307Z,16.19
2018-05-07T21:20:18.421Z,16.15
2018-05-07T21:22:46.534Z,16.10
2018-05-07T21:25:14.771Z,16.02
2018-05-07T21:27:42.880Z,15.96
2018-05-07T21:30:10.992Z,15.87
2018-05-07T21:32:39.129Z,15.77
2018-05-07T21:35:07.280Z,15.67
2018-05-07T21:37:35.401Z,15.60
2018-05-07T21:40:03.565Z,15.57
2018-05-07T21:42:31.675Z,15.51
2018-05-07T21:44:59.794Z,15.45
2018-05-07T21:47:27.937Z,15.38
2018-05-07T21:49:56.049Z,15.30
2018-05-07T21:52:24.160Z,15.20
2018-05-07T21:54:52.289Z,15.11
2018-05-07T21:57:20.420Z,15.02
2018-05-07T21:59:48.536Z,14.96
2018-05-07T22:02:16.711Z,14.91
2018-05-07T22:04:44.800Z,14.87
2018-05-07T22:07:12.929Z,14.76
2018-05-07T22:09:41.045Z,14.64
2018-05-07T22:12:09.172Z,14.54
2018-05-07T22:14:37.320Z,14.46
2018-05-07T22:17:05.451Z,14.39
2018-05-07T22:19:33.604Z,14.31
2018-05-07T22:22:01.714Z,14.23
2018-05-07T22:24:29.850Z,14.26
2018-05-07T22:26:57.971Z,14.28
2018-05-07T22:29:26.098Z,14.26
2018-05-07T22:31:54.233Z,14.17
2018-05-07T22:34:22.347Z,14.12
2018-05-07T22:36:50.465Z,14.08
2018-05-07T22:39:18.595Z,14.05
2018-05-07T22:41:46.719Z,14.06
2018-05-07T22:44:14.827Z,14.03
2018-05-07T22:46:43.003Z,13.94
2018-05-07T22:49:11.126Z,13.86
2018-05-07T22:51:39.248Z,13.78
2018-05-07T22:54:07.395Z,13.72
2018-05-07T22:56:35.503Z,13.68
2018-05-07T22:59:03.611Z,13.56
2018-05-07T23:01:31.755Z,13.49
2018-05-07T23:03:59.855Z,13.37
2018-05-07T23:06:27.965Z,13.25
2018-05-07T23:08:56.729Z,13.19
2018-05-07T23:11:24.853Z,13.09
2018-05-07T23:13:52.972Z,12.99
2018-05-07T23:16:21.104Z,12.91
2018-05-07T23:18:49.251Z,12.87
2018-05-07T23:21:17.358Z,12.83
2018-05-07T23:23:45.480Z,12.80
2018-05-07T23:26:13.609Z,12.75
2018-05-07T23:28:41.743Z,12.66
2018-05-07T23:31:09.951Z,12.40
2018-05-07T23:33:38.051Z,12.57
2018-05-07T23:36:06.167Z,12.52
2018-05-07T23:38:34.307Z,12.50
2018-05-07T23:41:02.412Z,12.48
2018-05-07T23:43:30.540Z,12.38
2018-05-07T23:45:58.672Z,12.33
2018-05-07T23:48:26.769Z,12.31
2018-05-07T23:50:54.897Z,12.28
2018-05-07T23:53:23.019Z,12.25
2018-05-07T23:55:51.161Z,12.22
2018-05-07T23:58:19.281Z,12.18
